• Join FlightAware (Why Join?)
  • Login
  • US Flag 
Trick or treat! (Boo!!) 
07:09PM EDT


 

Airport Tracker/Info


-or-


 

Live Flight TrackerFlight Track Log ✈ TAM3814 ✈ 27-Apr-2013 ✈ SBGL / GIG - SBBR / BSB

Flight Track Log - Related Links

Times and Time Zones

All times are in EDT time to prevent confusion due to time zone crossing. See the TAM3814 flight status page for this flight to view local times or setup timezone preferences in your user account.

Time Position Orientation Groundspeed Altitude Reporting Facility
EDT Latitude Longitude Course Direction KTS MPH feet Rate Location/Type
06:08PM -22.7850 -43.1980 66° East 188 216 1,100  Level FlightAware
06:09PM -22.7650 -43.1760 45° Northeast 234 269 1,700 2,280 Climbing FlightAware
06:09PM -22.7350 -43.1600 26° Northeast 227 261 3,400 3,000 Climbing FlightAware
06:10PM -22.7160 -43.1330 53° Northeast 240 276 4,700 2,580 Climbing FlightAware
06:10PM -22.7170 -43.1060 92° East 239 275 5,800 2,700 Climbing FlightAware
06:11PM -22.7170 -43.0670 90° East 245 282 7,200 2,460 Climbing FlightAware
06:11PM -22.7150 -43.0360 86° East 258 297 8,100 2,220 Climbing FlightAware
06:12PM -22.7060 -43.0210 57° Northeast 265 305 8,700 1,800 Climbing FlightAware
06:12PM -22.6870 -43.0110 26° Northeast 283 326 9,000 1,320 Climbing FlightAware
06:12PM -22.6470 -43.0230 345° North 309 356 9,700 1,320 Climbing FlightAware
06:13PM -22.5930 -43.0500 335° Northwest 338 389 10,600 1,500 Climbing FlightAware
06:14PM -22.5330 -43.0790 336° Northwest 362 417 11,700 1,800 Climbing FlightAware
06:14PM -22.4640 -43.1100 337° Northwest 371 427 13,200 2,040 Climbing FlightAware
06:15PM -22.3990 -43.1400 337° Northwest 379 436 14,600 2,040 Climbing FlightAware
06:16PM -22.3260 -43.1730 337° Northwest 382 440 16,100 1,680 Climbing FlightAware
06:16PM -22.2580 -43.2040 337° Northwest 401 461 17,000 1,680 Climbing FlightAware
06:17PM -22.1840 -43.2370 338° Northwest 397 457 18,500 1,380 Climbing FlightAware
06:18PM -22.1210 -43.2660 337° Northwest 396 456 19,000 360 Climbing FlightAware
06:19PM -22.0640 -43.2920 337° Northwest 396 456 19,000  Level FlightAware
06:19PM -22.0070 -43.3190 336° Northwest 396 456 19,000  Level FlightAware
06:20PM -21.9490 -43.3450 337° Northwest 396 456 19,000  Level FlightAware
06:21PM -21.8920 -43.3710 337° Northwest 396 456 19,000  Level FlightAware
06:21PM -21.8200 -43.4040 337° Northwest 396 456 19,000 2,280 Level FlightAware
06:23PM -21.6240 -43.5420 327° Northwest 25,600 3,120 Climbing FlightAware
06:24PM -21.5660 -43.5790 329° Northwest 438 504 26,400 1,260 Climbing FlightAware
06:24PM -21.4960 -43.6230 330° Northwest 437 503 27,300 1,260 Climbing FlightAware
06:25PM -21.4200 -43.6690 331° Northwest 442 509 28,000 1,020 Climbing FlightAware
06:26PM -21.3330 -43.7230 330° Northwest 453 521 28,700 900 Climbing FlightAware
06:26PM -21.2670 -43.7640 330° Northwest 455 524 29,300 960 Climbing FlightAware
06:27PM -21.1930 -43.8110 329° Northwest 457 526 30,000 720 Climbing FlightAware
06:28PM -21.1210 -43.8600 328° Northwest 464 534 30,400 1,440 Climbing FlightAware
06:29PM -20.9520 -43.9710 328° Northwest 450 518 32,700 1,680 Climbing FlightAware
06:30PM -20.8810 -44.0170 329° Northwest 452 520 33,200 1,020 Climbing FlightAware
06:30PM -20.8100 -44.0630 329° Northwest 445 512 34,100 1,020 Climbing FlightAware
06:31PM -20.7300 -44.1140 329° Northwest 445 512 34,700 720 Climbing FlightAware
06:32PM -20.6590 -44.1600 329° Northwest 445 512 35,200 300 Climbing FlightAware
06:32PM -20.5980 -44.1990 329° Northwest 445 512 35,100 -180 Descending FlightAware
06:33PM -20.5190 -44.2500 329° Northwest 444 511 35,000 -120 Descending FlightAware
06:34PM -20.4400 -44.3000 329° Northwest 437 503 35,000  Level FlightAware
06:34PM -20.3640 -44.3490 329° Northwest 437 503 35,000  Level FlightAware
06:35PM -20.2950 -44.3940 329° Northwest 435 501 35,000  Level FlightAware
06:36PM -20.2340 -44.4330 329° Northwest 434 499 35,000  Level FlightAware
06:37PM -20.1460 -44.4890 329° Northwest 434 499 35,000 180 Level FlightAware
06:39PM -20.0328 -44.5824 322° Northwest  Level Estimated
06:40PM -19.9753 -44.6298 322° Northwest  Level Estimated
06:41PM -19.9177 -44.6772 322° Northwest  Level Estimated
06:41PM -19.6680 -44.7950 322° Northwest 428 493 36,000  Level FlightAware
06:42PM -19.6000 -44.8380 329° Northwest 426 490 36,000  Level FlightAware
06:43PM -19.5330 -44.8810 329° Northwest 426 490 36,000  Level FlightAware
06:43PM -19.4590 -44.9280 329° Northwest 424 488 36,000  Level FlightAware
06:44PM -19.3970 -44.9680 329° Northwest 424 488 36,000  Level FlightAware
06:45PM -19.3190 -45.0180 329° Northwest 425 489 36,000  Level FlightAware
06:45PM -19.2470 -45.0630 329° Northwest 425 489 36,000  Level FlightAware
06:46PM -19.1850 -45.1020 329° Northwest 427 491 36,000  Level FlightAware
06:47PM -19.0730 -45.1730 329° Northwest 427 491 36,000  Level FlightAware
06:48PM -18.9970 -45.2210 329° Northwest 427 491 36,000  Level FlightAware
06:51PM -18.8449 -45.3546 320° Northwest  Level Estimated
06:52PM -18.7889 -45.4037 320° Northwest  Level Estimated
06:52PM -18.5270 -45.5160 320° Northwest 427 491 36,000  Level FlightAware
06:53PM -18.7328 -45.4528 320° Northwest  Level Estimated
06:54PM -18.3820 -45.6060 329° Northwest 429 494 36,000  Level FlightAware
06:55PM -18.2960 -45.6600 329° Northwest 431 496 36,000  Level FlightAware
06:55PM -18.2260 -45.7040 329° Northwest 432 497 36,000  Level FlightAware
06:56PM -18.1510 -45.7500 330° Northwest 431 496 36,000  Level FlightAware
06:57PM -18.0800 -45.7940 329° Northwest 430 495 36,000  Level FlightAware
06:58PM -18.0070 -45.8400 329° Northwest 428 493 36,000  Level FlightAware
06:58PM -17.9350 -45.8850 329° Northwest 428 493 36,000  Level FlightAware
06:59PM -17.8740 -45.9230 329° Northwest 429 494 36,000  Level FlightAware
07:00PM -17.7940 -45.9720 330° Northwest 430 495 36,000  Level FlightAware
07:00PM -17.7370 -46.0080 329° Northwest 430 495 36,000  Level FlightAware
07:01PM -17.6790 -46.0450 329° Northwest 430 495 36,000  Level FlightAware
07:02PM -17.6070 -46.0900 329° Northwest 430 495 36,000  Level FlightAware
07:03PM -17.4840 -46.1650 330° Northwest 431 496 36,000  Level FlightAware
07:03PM -17.4120 -46.2090 330° Northwest 430 495 36,000  Level FlightAware
07:04PM -17.3540 -46.2460 329° Northwest 430 495 36,000  Level FlightAware
07:05PM -17.2960 -46.2820 329° Northwest 430 495 36,000  Level FlightAware
07:05PM -17.2380 -46.3190 329° Northwest 430 495 36,000  Level FlightAware
07:06PM -17.1800 -46.3550 329° Northwest 430 495 36,000  Level FlightAware
07:07PM -17.1080 -46.4010 329° Northwest 430 495 36,000  Level FlightAware
07:08PM -17.0500 -46.4370 329° Northwest 430 495 36,000  Level FlightAware
07:08PM -16.9920 -46.4730 329° Northwest 430 495 36,000  Level FlightAware
07:09PM -16.9340 -46.5100 329° Northwest 430 495 36,000  Level FlightAware
07:10PM -16.8760 -46.5460 329° Northwest 430 495 36,000  Level FlightAware
07:10PM -16.8180 -46.5830 329° Northwest 430 495 36,000  Level FlightAware
07:11PM -16.7460 -46.6280 329° Northwest 430 495 36,000  Level FlightAware
07:12PM -16.6880 -46.6650 329° Northwest 430 495 36,000  Level FlightAware
07:12PM -16.6300 -46.7010 329° Northwest 430 495 36,000 -2,820 Level FlightAware
07:15PM -16.5448 -46.8365 303° West  Level Estimated
07:16PM -16.5049 -46.9000 303° West  Level Estimated
07:17PM -16.4649 -46.9634 303° West  Level Estimated
07:18PM -16.4249 -47.0269 303° West  Level Estimated
07:18PM -16.2200 -47.4200 303° West 388 447 19,100  Level FlightAware
07:19PM -16.1700 -47.4740 314° West 386 444 17,700 -2,340 Descending FlightAware
07:19PM -16.1150 -47.5310 315° West 391 450 15,800 -2,400 Descending FlightAware
07:20PM -16.0650 -47.5830 315° West 385 443 14,500 -1,920 Descending FlightAware
07:21PM -16.0180 -47.6330 314° West 379 436 13,300 -1,800 Descending FlightAware
07:21PM -15.9660 -47.6950 311° West 359 413 12,000 -1,740 Descending FlightAware
07:22PM -15.9610 -47.7220 281° West 350 403 11,600 -1,680 Descending FlightAware
07:22PM -15.9650 -47.7790 266° West 339 390 10,600 -780 Descending FlightAware
07:23PM -15.9710 -47.8460 265° West 339 390 10,600  Level FlightAware
07:24PM -15.9750 -47.9010 266° West 339 390 10,600 -900 Level FlightAware
07:26PM -15.8626 -47.9127 354° North  Level Estimated
07:27PM -15.8626 -47.9127 128° Southeast  Level Estimated
07:28PM -15.8626 -47.9127 128° Southeast  Level Estimated
07:29PM -15.8626 -47.9127 128° Southeast  Level Estimated
07:29PM -15.8810 -48.1460 128° Southeast 212 244 5,600  Level FlightAware
07:29PM -15.8780 -48.1310 78° East 209 241 5,500 -300 Descending FlightAware
07:32PM -15.8653 -47.9511 86° East  Level Estimated
07:33PM -15.8626 -47.9127 86° East  Level Estimated
07:34PM -15.8626 -47.9127 128° Southeast  Level Estimated